sensor_id;sensor_type;location;lat;lon;timestamp;P1;durP1;ratioP1;P2;durP2;ratioP2
53064;SDS011;38948;48.376;-4.312;2022-09-01T00:02:05;2.90;;;1.20;;
53064;SDS011;38948;48.376;-4.312;2022-09-01T00:04:33;3.15;;;1.10;;
53064;SDS011;38948;48.376;-4.312;2022-09-01T00:07:01;2.38;;;1.60;;
53064;SDS011;38948;48.376;-4.312;2022-09-01T00:09:27;2.78;;;1.10;;
53064;SDS011;38948;48.376;-4.312;2022-09-01T00:11:53;2.63;;;1.25;;
53064;SDS011;38948;48.376;-4.312;2022-09-01T00:14:21;3.28;;;1.33;;
53064;SDS011;38948;48.376;-4.312;2022-09-01T00:16:47;3.40;;;1.30;;
53064;SDS011;38948;48.376;-4.312;2022-09-01T00:19:13;2.17;;;1.27;;
53064;SDS011;38948;48.376;-4.312;2022-09-01T00:21:41;2.10;;;1.10;;
53064;SDS011;38948;48.376;-4.312;2022-09-01T00:24:07;1.67;;;0.85;;
53064;SDS011;38948;48.376;-4.312;2022-09-01T00:26:34;3.63;;;1.38;;
53064;SDS011;38948;48.376;-4.312;2022-09-01T00:29:00;2.00;;;0.98;;
53064;SDS011;38948;48.376;-4.312;2022-09-01T00:31:26;2.97;;;1.20;;
53064;SDS011;38948;48.376;-4.312;2022-09-01T00:33:53;2.00;;;1.10;;
53064;SDS011;38948;48.376;-4.312;2022-09-01T00:36:19;2.10;;;1.20;;
53064;SDS011;38948;48.376;-4.312;2022-09-01T00:38:45;4.03;;;1.10;;
53064;SDS011;38948;48.376;-4.312;2022-09-01T00:41:12;2.72;;;0.98;;
53064;SDS011;38948;48.376;-4.312;2022-09-01T00:43:43;1.98;;;0.93;;
53064;SDS011;38948;48.376;-4.312;2022-09-01T00:46:10;2.75;;;1.13;;
53064;SDS011;38948;48.376;-4.312;2022-09-01T00:48:37;3.13;;;1.20;;
53064;SDS011;38948;48.376;-4.312;2022-09-01T00:51:04;4.45;;;1.17;;
53064;SDS011;38948;48.376;-4.312;2022-09-01T00:53:30;1.38;;;1.05;;
53064;SDS011;38948;48.376;-4.312;2022-09-01T00:55:57;1.95;;;1.02;;
53064;SDS011;38948;48.376;-4.312;2022-09-01T00:58:23;4.63;;;1.25;;
53064;SDS011;38948;48.376;-4.312;2022-09-01T01:00:50;2.92;;;1.17;;
53064;SDS011;38948;48.376;-4.312;2022-09-01T01:03:17;2.35;;;1.10;;
53064;SDS011;38948;48.376;-4.312;2022-09-01T01:05:45;2.75;;;1.38;;
53064;SDS011;38948;48.376;-4.312;2022-09-01T01:08:17;6.53;;;1.30;;
53064;SDS011;38948;48.376;-4.312;2022-09-01T01:10:45;1.48;;;0.90;;
53064;SDS011;38948;48.376;-4.312;2022-09-01T01:13:13;2.28;;;1.20;;
53064;SDS011;38948;48.376;-4.312;2022-09-01T01:15:41;1.83;;;1.10;;
53064;SDS011;38948;48.376;-4.312;2022-09-01T01:18:11;2.88;;;1.30;;
53064;SDS011;38948;48.376;-4.312;2022-09-01T01:20:37;2.70;;;0.98;;
53064;SDS011;38948;48.376;-4.312;2022-09-01T01:23:30;1.80;;;0.93;;
53064;SDS011;38948;48.376;-4.312;2022-09-01T01:26:01;2.25;;;1.00;;
53064;SDS011;38948;48.376;-4.312;2022-09-01T01:28:29;1.63;;;1.00;;
53064;SDS011;38948;48.376;-4.312;2022-09-01T01:30:57;2.20;;;1.20;;
53064;SDS011;38948;48.376;-4.312;2022-09-01T01:33:37;2.17;;;1.05;;
53064;SDS011;38948;48.376;-4.312;2022-09-01T01:36:07;5.25;;;1.13;;
53064;SDS011;38948;48.376;-4.312;2022-09-01T01:38:34;3.50;;;1.30;;
53064;SDS011;38948;48.376;-4.312;2022-09-01T01:41:01;2.22;;;1.38;;
53064;SDS011;38948;48.376;-4.312;2022-09-01T01:43:28;2.03;;;1.15;;
53064;SDS011;38948;48.376;-4.312;2022-09-01T01:45:56;4.00;;;1.23;;
53064;SDS011;38948;48.376;-4.312;2022-09-01T01:48:27;2.90;;;1.00;;
53064;SDS011;38948;48.376;-4.312;2022-09-01T01:50:53;1.02;;;0.80;;
53064;SDS011;38948;48.376;-4.312;2022-09-01T01:53:23;2.90;;;1.40;;
53064;SDS011;38948;48.376;-4.312;2022-09-01T01:55:50;1.65;;;1.00;;
53064;SDS011;38948;48.376;-4.312;2022-09-01T01:58:16;3.92;;;1.05;;
53064;SDS011;38948;48.376;-4.312;2022-09-01T02:00:46;3.95;;;1.33;;
53064;SDS011;38948;48.376;-4.312;2022-09-01T02:03:13;7.22;;;1.23;;
53064;SDS011;38948;48.376;-4.312;2022-09-01T02:05:49;3.05;;;1.08;;
53064;SDS011;38948;48.376;-4.312;2022-09-01T02:08:16;1.92;;;0.90;;
53064;SDS011;38948;48.376;-4.312;2022-09-01T02:10:47;2.05;;;1.10;;
53064;SDS011;38948;48.376;-4.312;2022-09-01T02:13:14;2.45;;;1.00;;
53064;SDS011;38948;48.376;-4.312;2022-09-01T02:15:48;0.95;;;0.85;;
53064;SDS011;38948;48.376;-4.312;2022-09-01T02:18:18;1.85;;;1.08;;
53064;SDS011;38948;48.376;-4.312;2022-09-01T02:20:48;3.78;;;1.20;;
53064;SDS011;38948;48.376;-4.312;2022-09-01T02:23:15;2.60;;;1.17;;
53064;SDS011;38948;48.376;-4.312;2022-09-01T02:25:44;3.67;;;1.33;;
53064;SDS011;38948;48.376;-4.312;2022-09-01T02:28:11;1.10;;;0.90;;
53064;SDS011;38948;48.376;-4.312;2022-09-01T02:30:48;2.30;;;1.25;;
53064;SDS011;38948;48.376;-4.312;2022-09-01T02:33:16;2.13;;;1.17;;
53064;SDS011;38948;48.376;-4.312;2022-09-01T02:35:56;3.25;;;1.23;;
53064;SDS011;38948;48.376;-4.312;2022-09-01T02:38:23;2.03;;;0.95;;
53064;SDS011;38948;48.376;-4.312;2022-09-01T02:40:50;2.00;;;1.10;;
53064;SDS011;38948;48.376;-4.312;2022-09-01T02:43:17;1.77;;;1.08;;
53064;SDS011;38948;48.376;-4.312;2022-09-01T02:45:44;1.75;;;0.95;;
53064;SDS011;38948;48.376;-4.312;2022-09-01T02:48:11;1.67;;;1.10;;
53064;SDS011;38948;48.376;-4.312;2022-09-01T02:50:37;1.55;;;0.98;;
53064;SDS011;38948;48.376;-4.312;2022-09-01T02:53:05;2.50;;;1.10;;
53064;SDS011;38948;48.376;-4.312;2022-09-01T02:55:37;2.53;;;1.10;;
53064;SDS011;38948;48.376;-4.312;2022-09-01T02:58:03;1.17;;;0.80;;
53064;SDS011;38948;48.376;-4.312;2022-09-01T03:00:32;1.15;;;0.80;;
53064;SDS011;38948;48.376;-4.312;2022-09-01T03:03:00;1.55;;;0.70;;
53064;SDS011;38948;48.376;-4.312;2022-09-01T03:05:27;2.00;;;0.90;;
53064;SDS011;38948;48.376;-4.312;2022-09-01T03:08:01;2.17;;;1.05;;
53064;SDS011;38948;48.376;-4.312;2022-09-01T03:10:29;2.55;;;1.00;;
53064;SDS011;38948;48.376;-4.312;2022-09-01T03:13:04;2.70;;;1.95;;
53064;SDS011;38948;48.376;-4.312;2022-09-01T03:15:31;1.40;;;0.88;;
53064;SDS011;38948;48.376;-4.312;2022-09-01T03:17:58;3.22;;;1.10;;
53064;SDS011;38948;48.376;-4.312;2022-09-01T03:20:27;2.95;;;1.00;;
53064;SDS011;38948;48.376;-4.312;2022-09-01T03:22:55;1.73;;;1.00;;
53064;SDS011;38948;48.376;-4.312;2022-09-01T03:25:22;1.30;;;0.90;;
53064;SDS011;38948;48.376;-4.312;2022-09-01T03:27:49;2.40;;;1.13;;
53064;SDS011;38948;48.376;-4.312;2022-09-01T03:30:16;2.42;;;1.13;;
53064;SDS011;38948;48.376;-4.312;2022-09-01T03:32:42;2.83;;;1.08;;
53064;SDS011;38948;48.376;-4.312;2022-09-01T03:35:09;1.05;;;0.90;;
53064;SDS011;38948;48.376;-4.312;2022-09-01T03:37:36;2.05;;;0.98;;
53064;SDS011;38948;48.376;-4.312;2022-09-01T03:40:04;1.67;;;1.08;;
53064;SDS011;38948;48.376;-4.312;2022-09-01T03:42:33;0.88;;;0.70;;
53064;SDS011;38948;48.376;-4.312;2022-09-01T03:44:59;2.97;;;0.98;;
53064;SDS011;38948;48.376;-4.312;2022-09-01T03:47:31;1.42;;;1.00;;
53064;SDS011;38948;48.376;-4.312;2022-09-01T03:49:57;1.73;;;0.90;;
53064;SDS011;38948;48.376;-4.312;2022-09-01T03:52:23;3.67;;;1.27;;
53064;SDS011;38948;48.376;-4.312;2022-09-01T03:54:50;2.22;;;0.88;;
53064;SDS011;38948;48.376;-4.312;2022-09-01T03:57:17;1.13;;;0.93;;
53064;SDS011;38948;48.376;-4.312;2022-09-01T03:59:44;3.05;;;0.98;;
53064;SDS011;38948;48.376;-4.312;2022-09-01T04:02:10;2.70;;;1.00;;
53064;SDS011;38948;48.376;-4.312;2022-09-01T04:04:37;1.77;;;1.00;;
53064;SDS011;38948;48.376;-4.312;2022-09-01T04:07:03;1.55;;;1.10;;
53064;SDS011;38948;48.376;-4.312;2022-09-01T04:09:31;1.70;;;0.90;;
53064;SDS011;38948;48.376;-4.312;2022-09-01T04:11:57;2.38;;;1.00;;
53064;SDS011;38948;48.376;-4.312;2022-09-01T04:14:23;2.03;;;1.17;;
53064;SDS011;38948;48.376;-4.312;2022-09-01T04:16:51;1.90;;;1.20;;
53064;SDS011;38948;48.376;-4.312;2022-09-01T04:19:36;1.53;;;0.80;;
53064;SDS011;38948;48.376;-4.312;2022-09-01T04:22:03;2.13;;;1.02;;
53064;SDS011;38948;48.376;-4.312;2022-09-01T04:24:30;1.75;;;1.13;;
53064;SDS011;38948;48.376;-4.312;2022-09-01T04:26:57;3.15;;;1.30;;
53064;SDS011;38948;48.376;-4.312;2022-09-01T04:29:25;1.33;;;0.82;;
53064;SDS011;38948;48.376;-4.312;2022-09-01T04:31:55;2.22;;;1.15;;
53064;SDS011;38948;48.376;-4.312;2022-09-01T04:34:26;2.93;;;1.27;;
53064;SDS011;38948;48.376;-4.312;2022-09-01T04:36:52;3.03;;;1.05;;
53064;SDS011;38948;48.376;-4.312;2022-09-01T04:39:19;1.90;;;1.10;;
53064;SDS011;38948;48.376;-4.312;2022-09-01T04:41:46;0.95;;;0.80;;
53064;SDS011;38948;48.376;-4.312;2022-09-01T04:44:15;2.10;;;1.08;;
53064;SDS011;38948;48.376;-4.312;2022-09-01T04:46:43;1.77;;;1.08;;
53064;SDS011;38948;48.376;-4.312;2022-09-01T04:49:15;2.05;;;0.90;;
53064;SDS011;38948;48.376;-4.312;2022-09-01T04:51:47;2.33;;;1.00;;
53064;SDS011;38948;48.376;-4.312;2022-09-01T04:54:13;2.97;;;1.10;;
53064;SDS011;38948;48.376;-4.312;2022-09-01T04:56:45;1.60;;;1.05;;
53064;SDS011;38948;48.376;-4.312;2022-09-01T04:59:13;2.50;;;0.98;;
53064;SDS011;38948;48.376;-4.312;2022-09-01T05:01:40;3.30;;;1.27;;
53064;SDS011;38948;48.376;-4.312;2022-09-01T05:04:10;2.40;;;1.00;;
53064;SDS011;38948;48.376;-4.312;2022-09-01T05:06:36;2.78;;;1.23;;
53064;SDS011;38948;48.376;-4.312;2022-09-01T05:09:05;1.90;;;1.30;;
53064;SDS011;38948;48.376;-4.312;2022-09-01T05:11:34;15.20;;;2.22;;
53064;SDS011;38948;48.376;-4.312;2022-09-01T05:14:01;10.77;;;2.20;;
53064;SDS011;38948;48.376;-4.312;2022-09-01T05:16:29;9.30;;;1.98;;
53064;SDS011;38948;48.376;-4.312;2022-09-01T05:18:57;9.80;;;2.15;;
53064;SDS011;38948;48.376;-4.312;2022-09-01T05:21:25;5.90;;;1.50;;
53064;SDS011;38948;48.376;-4.312;2022-09-01T05:23:53;9.65;;;1.70;;
53064;SDS011;38948;48.376;-4.312;2022-09-01T05:26:24;6.25;;;2.10;;
53064;SDS011;38948;48.376;-4.312;2022-09-01T05:28:52;10.45;;;2.05;;
53064;SDS011;38948;48.376;-4.312;2022-09-01T05:31:19;8.05;;;2.17;;
53064;SDS011;38948;48.376;-4.312;2022-09-01T05:33:46;5.35;;;2.40;;
53064;SDS011;38948;48.376;-4.312;2022-09-01T05:36:17;7.35;;;2.40;;
53064;SDS011;38948;48.376;-4.312;2022-09-01T05:38:44;6.50;;;3.03;;
53064;SDS011;38948;48.376;-4.312;2022-09-01T05:41:12;6.25;;;2.53;;
53064;SDS011;38948;48.376;-4.312;2022-09-01T05:43:42;6.93;;;1.92;;
53064;SDS011;38948;48.376;-4.312;2022-09-01T05:46:12;4.13;;;2.08;;
53064;SDS011;38948;48.376;-4.312;2022-09-01T05:48:44;7.50;;;2.22;;
53064;SDS011;38948;48.376;-4.312;2022-09-01T05:51:13;7.10;;;2.33;;
53064;SDS011;38948;48.376;-4.312;2022-09-01T05:53:40;5.97;;;2.35;;
53064;SDS011;38948;48.376;-4.312;2022-09-01T05:56:08;8.68;;;2.50;;
53064;SDS011;38948;48.376;-4.312;2022-09-01T05:58:39;4.78;;;2.05;;
53064;SDS011;38948;48.376;-4.312;2022-09-01T06:01:08;10.95;;;2.58;;
53064;SDS011;38948;48.376;-4.312;2022-09-01T06:03:37;5.13;;;2.05;;
53064;SDS011;38948;48.376;-4.312;2022-09-01T06:06:05;4.72;;;1.77;;
53064;SDS011;38948;48.376;-4.312;2022-09-01T06:08:33;4.10;;;1.40;;
53064;SDS011;38948;48.376;-4.312;2022-09-01T06:11:00;6.70;;;1.90;;
53064;SDS011;38948;48.376;-4.312;2022-09-01T06:13:28;8.02;;;2.15;;
53064;SDS011;38948;48.376;-4.312;2022-09-01T06:16:00;9.15;;;1.98;;
53064;SDS011;38948;48.376;-4.312;2022-09-01T06:18:26;6.78;;;1.90;;
53064;SDS011;38948;48.376;-4.312;2022-09-01T06:20:52;5.97;;;1.85;;
53064;SDS011;38948;48.376;-4.312;2022-09-01T06:23:19;7.68;;;2.30;;
53064;SDS011;38948;48.376;-4.312;2022-09-01T06:25:45;5.35;;;1.92;;
53064;SDS011;38948;48.376;-4.312;2022-09-01T06:28:12;5.20;;;2.08;;
53064;SDS011;38948;48.376;-4.312;2022-09-01T06:30:40;7.65;;;2.08;;
53064;SDS011;38948;48.376;-4.312;2022-09-01T06:33:07;5.53;;;2.13;;
53064;SDS011;38948;48.376;-4.312;2022-09-01T06:35:35;9.93;;;1.88;;
53064;SDS011;38948;48.376;-4.312;2022-09-01T06:38:03;6.88;;;2.35;;
53064;SDS011;38948;48.376;-4.312;2022-09-01T06:40:30;9.43;;;2.22;;
53064;SDS011;38948;48.376;-4.312;2022-09-01T06:42:58;7.20;;;2.05;;
53064;SDS011;38948;48.376;-4.312;2022-09-01T06:45:32;6.60;;;1.83;;
53064;SDS011;38948;48.376;-4.312;2022-09-01T06:47:58;7.75;;;1.80;;
53064;SDS011;38948;48.376;-4.312;2022-09-01T06:50:25;5.35;;;1.60;;
53064;SDS011;38948;48.376;-4.312;2022-09-01T06:52:52;5.13;;;1.73;;
53064;SDS011;38948;48.376;-4.312;2022-09-01T06:55:25;6.72;;;2.22;;
53064;SDS011;38948;48.376;-4.312;2022-09-01T06:57:56;8.27;;;2.70;;
53064;SDS011;38948;48.376;-4.312;2022-09-01T07:00:22;8.48;;;2.20;;
53064;SDS011;38948;48.376;-4.312;2022-09-01T07:02:54;4.35;;;2.03;;
53064;SDS011;38948;48.376;-4.312;2022-09-01T07:05:21;6.82;;;2.33;;
53064;SDS011;38948;48.376;-4.312;2022-09-01T07:07:48;7.45;;;2.80;;
53064;SDS011;38948;48.376;-4.312;2022-09-01T07:10:16;7.35;;;2.70;;
53064;SDS011;38948;48.376;-4.312;2022-09-01T07:12:47;6.15;;;1.70;;
53064;SDS011;38948;48.376;-4.312;2022-09-01T07:15:14;7.25;;;1.70;;
53064;SDS011;38948;48.376;-4.312;2022-09-01T07:17:41;5.93;;;1.52;;
53064;SDS011;38948;48.376;-4.312;2022-09-01T07:20:08;6.32;;;1.92;;
53064;SDS011;38948;48.376;-4.312;2022-09-01T07:22:35;7.95;;;2.13;;
53064;SDS011;38948;48.376;-4.312;2022-09-01T07:25:01;5.25;;;1.70;;
53064;SDS011;38948;48.376;-4.312;2022-09-01T07:27:27;6.63;;;1.88;;
53064;SDS011;38948;48.376;-4.312;2022-09-01T07:29:54;6.45;;;1.90;;
53064;SDS011;38948;48.376;-4.312;2022-09-01T07:32:21;7.65;;;1.77;;
53064;SDS011;38948;48.376;-4.312;2022-09-01T07:34:47;3.58;;;1.55;;
53064;SDS011;38948;48.376;-4.312;2022-09-01T07:37:13;6.55;;;2.20;;
53064;SDS011;38948;48.376;-4.312;2022-09-01T07:39:41;5.95;;;1.35;;
53064;SDS011;38948;48.376;-4.312;2022-09-01T07:42:10;4.25;;;1.50;;
53064;SDS011;38948;48.376;-4.312;2022-09-01T07:44:37;4.30;;;1.73;;
53064;SDS011;38948;48.376;-4.312;2022-09-01T07:47:03;4.63;;;1.65;;
53064;SDS011;38948;48.376;-4.312;2022-09-01T07:49:32;4.50;;;1.60;;
53064;SDS011;38948;48.376;-4.312;2022-09-01T07:52:02;3.80;;;1.40;;
53064;SDS011;38948;48.376;-4.312;2022-09-01T07:54:29;3.28;;;1.50;;
53064;SDS011;38948;48.376;-4.312;2022-09-01T07:56:55;5.90;;;1.63;;
53064;SDS011;38948;48.376;-4.312;2022-09-01T07:59:21;6.75;;;1.95;;
53064;SDS011;38948;48.376;-4.312;2022-09-01T08:01:47;4.03;;;1.75;;
53064;SDS011;38948;48.376;-4.312;2022-09-01T08:04:14;6.75;;;1.88;;
53064;SDS011;38948;48.376;-4.312;2022-09-01T08:06:42;2.58;;;1.35;;
53064;SDS011;38948;48.376;-4.312;2022-09-01T08:09:08;4.88;;;1.42;;
53064;SDS011;38948;48.376;-4.312;2022-09-01T08:11:34;4.35;;;1.33;;
53064;SDS011;38948;48.376;-4.312;2022-09-01T08:14:01;6.50;;;2.47;;
53064;SDS011;38948;48.376;-4.312;2022-09-01T08:16:28;3.75;;;1.48;;
53064;SDS011;38948;48.376;-4.312;2022-09-01T08:18:55;2.95;;;1.52;;
53064;SDS011;38948;48.376;-4.312;2022-09-01T08:21:21;5.13;;;1.42;;
53064;SDS011;38948;48.376;-4.312;2022-09-01T08:23:49;3.00;;;1.30;;
53064;SDS011;38948;48.376;-4.312;2022-09-01T08:26:16;5.75;;;1.63;;
53064;SDS011;38948;48.376;-4.312;2022-09-01T08:28:43;3.55;;;1.60;;
53064;SDS011;38948;48.376;-4.312;2022-09-01T08:31:11;4.40;;;1.63;;
53064;SDS011;38948;48.376;-4.312;2022-09-01T08:33:37;5.22;;;1.80;;
53064;SDS011;38948;48.376;-4.312;2022-09-01T08:36:08;3.97;;;1.65;;
53064;SDS011;38948;48.376;-4.312;2022-09-01T08:38:35;4.55;;;1.40;;
53064;SDS011;38948;48.376;-4.312;2022-09-01T08:41:02;6.07;;;1.65;;
53064;SDS011;38948;48.376;-4.312;2022-09-01T08:43:38;4.00;;;1.90;;
53064;SDS011;38948;48.376;-4.312;2022-09-01T08:46:08;3.20;;;1.55;;
53064;SDS011;38948;48.376;-4.312;2022-09-01T08:53:46;3.10;;;1.50;;
53064;SDS011;38948;48.376;-4.312;2022-09-01T08:56:13;4.68;;;1.40;;
53064;SDS011;38948;48.376;-4.312;2022-09-01T08:58:40;3.35;;;1.60;;
53064;SDS011;38948;48.376;-4.312;2022-09-01T09:01:08;4.32;;;1.55;;
53064;SDS011;38948;48.376;-4.312;2022-09-01T09:03:53;3.15;;;1.42;;
53064;SDS011;38948;48.376;-4.312;2022-09-01T09:09:09;3.45;;;1.40;;
53064;SDS011;38948;48.376;-4.312;2022-09-01T09:16:45;5.68;;;1.63;;
53064;SDS011;38948;48.376;-4.312;2022-09-01T09:21:43;3.95;;;1.63;;
53064;SDS011;38948;48.376;-4.312;2022-09-01T09:26:48;2.90;;;1.60;;
53064;SDS011;38948;48.376;-4.312;2022-09-01T09:29:14;2.88;;;1.67;;
53064;SDS011;38948;48.376;-4.312;2022-09-01T09:31:41;4.00;;;1.70;;
53064;SDS011;38948;48.376;-4.312;2022-09-01T09:34:29;3.17;;;1.60;;
53064;SDS011;38948;48.376;-4.312;2022-09-01T09:37:15;3.65;;;1.75;;
53064;SDS011;38948;48.376;-4.312;2022-09-01T09:39:42;4.43;;;1.90;;
53064;SDS011;38948;48.376;-4.312;2022-09-01T09:42:12;2.70;;;1.70;;
53064;SDS011;38948;48.376;-4.312;2022-09-01T09:44:44;5.13;;;1.90;;
53064;SDS011;38948;48.376;-4.312;2022-09-01T09:50:14;4.03;;;1.88;;
53064;SDS011;38948;48.376;-4.312;2022-09-01T09:52:41;3.85;;;1.88;;
53064;SDS011;38948;48.376;-4.312;2022-09-01T09:57:43;4.07;;;1.77;;
53064;SDS011;38948;48.376;-4.312;2022-09-01T10:00:20;3.25;;;1.50;;
53064;SDS011;38948;48.376;-4.312;2022-09-01T10:02:51;2.38;;;1.48;;
53064;SDS011;38948;48.376;-4.312;2022-09-01T10:05:25;4.03;;;1.77;;
53064;SDS011;38948;48.376;-4.312;2022-09-01T10:07:52;7.03;;;2.30;;
53064;SDS011;38948;48.376;-4.312;2022-09-01T10:10:36;3.50;;;1.63;;
53064;SDS011;38948;48.376;-4.312;2022-09-01T10:15:37;4.30;;;2.25;;
53064;SDS011;38948;48.376;-4.312;2022-09-01T10:18:05;3.92;;;2.10;;
53064;SDS011;38948;48.376;-4.312;2022-09-01T10:20:32;2.22;;;1.23;;
53064;SDS011;38948;48.376;-4.312;2022-09-01T10:22:59;5.10;;;2.17;;
53064;SDS011;38948;48.376;-4.312;2022-09-01T10:25:27;2.85;;;1.90;;
53064;SDS011;38948;48.376;-4.312;2022-09-01T10:27:55;3.88;;;1.90;;
53064;SDS011;38948;48.376;-4.312;2022-09-01T10:30:23;3.83;;;1.95;;
53064;SDS011;38948;48.376;-4.312;2022-09-01T10:32:51;3.97;;;2.28;;
53064;SDS011;38948;48.376;-4.312;2022-09-01T10:35:28;3.10;;;1.67;;
53064;SDS011;38948;48.376;-4.312;2022-09-01T10:37:54;3.67;;;1.83;;
53064;SDS011;38948;48.376;-4.312;2022-09-01T10:42:52;3.53;;;1.92;;
53064;SDS011;38948;48.376;-4.312;2022-09-01T10:45:40;3.60;;;1.88;;
53064;SDS011;38948;48.376;-4.312;2022-09-01T10:50:48;2.92;;;1.70;;
53064;SDS011;38948;48.376;-4.312;2022-09-01T11:01:10;3.35;;;1.80;;
53064;SDS011;38948;48.376;-4.312;2022-09-01T11:03:57;4.55;;;2.05;;
53064;SDS011;38948;48.376;-4.312;2022-09-01T11:09:04;3.47;;;2.30;;
53064;SDS011;38948;48.376;-4.312;2022-09-01T11:11:42;3.05;;;1.80;;
53064;SDS011;38948;48.376;-4.312;2022-09-01T11:14:18;4.25;;;2.00;;
53064;SDS011;38948;48.376;-4.312;2022-09-01T11:17:09;3.33;;;2.00;;
53064;SDS011;38948;48.376;-4.312;2022-09-01T11:19:46;3.25;;;1.98;;
53064;SDS011;38948;48.376;-4.312;2022-09-01T11:22:26;3.75;;;1.67;;
53064;SDS011;38948;48.376;-4.312;2022-09-01T11:32:49;3.33;;;1.92;;
53064;SDS011;38948;48.376;-4.312;2022-09-01T11:35:17;2.35;;;1.75;;
53064;SDS011;38948;48.376;-4.312;2022-09-01T11:37:51;2.80;;;1.98;;
53064;SDS011;38948;48.376;-4.312;2022-09-01T11:40:35;4.20;;;2.03;;
53064;SDS011;38948;48.376;-4.312;2022-09-01T11:43:09;2.88;;;1.80;;
53064;SDS011;38948;48.376;-4.312;2022-09-01T11:45:38;3.45;;;2.13;;
53064;SDS011;38948;48.376;-4.312;2022-09-01T11:48:08;2.97;;;1.70;;
53064;SDS011;38948;48.376;-4.312;2022-09-01T11:50:36;3.63;;;1.92;;
53064;SDS011;38948;48.376;-4.312;2022-09-01T11:53:06;3.63;;;2.17;;
53064;SDS011;38948;48.376;-4.312;2022-09-01T11:55:37;3.30;;;2.03;;
53064;SDS011;38948;48.376;-4.312;2022-09-01T11:58:14;3.40;;;2.22;;
53064;SDS011;38948;48.376;-4.312;2022-09-01T12:00:56;5.40;;;1.83;;
53064;SDS011;38948;48.376;-4.312;2022-09-01T12:03:27;4.35;;;2.00;;
53064;SDS011;38948;48.376;-4.312;2022-09-01T12:06:04;3.05;;;2.20;;
53064;SDS011;38948;48.376;-4.312;2022-09-01T12:08:32;3.28;;;1.92;;
53064;SDS011;38948;48.376;-4.312;2022-09-01T12:13:31;3.28;;;1.77;;
53064;SDS011;38948;48.376;-4.312;2022-09-01T12:15:59;3.90;;;1.75;;
53064;SDS011;38948;48.376;-4.312;2022-09-01T12:18:27;3.03;;;1.95;;
53064;SDS011;38948;48.376;-4.312;2022-09-01T12:20:54;3.53;;;1.98;;
53064;SDS011;38948;48.376;-4.312;2022-09-01T12:23:26;3.45;;;2.08;;
53064;SDS011;38948;48.376;-4.312;2022-09-01T12:25:53;5.30;;;2.17;;
53064;SDS011;38948;48.376;-4.312;2022-09-01T12:28:20;3.90;;;2.00;;
53064;SDS011;38948;48.376;-4.312;2022-09-01T12:30:47;2.33;;;1.70;;
53064;SDS011;38948;48.376;-4.312;2022-09-01T12:33:14;4.93;;;2.00;;
53064;SDS011;38948;48.376;-4.312;2022-09-01T12:35:42;2.90;;;1.80;;
53064;SDS011;38948;48.376;-4.312;2022-09-01T12:38:20;3.05;;;1.77;;
53064;SDS011;38948;48.376;-4.312;2022-09-01T12:40:47;5.50;;;2.30;;
53064;SDS011;38948;48.376;-4.312;2022-09-01T12:43:33;3.50;;;2.13;;
53064;SDS011;38948;48.376;-4.312;2022-09-01T12:46:00;3.05;;;1.52;;
53064;SDS011;38948;48.376;-4.312;2022-09-01T12:48:33;3.38;;;1.90;;
53064;SDS011;38948;48.376;-4.312;2022-09-01T12:51:01;4.80;;;2.10;;
53064;SDS011;38948;48.376;-4.312;2022-09-01T12:53:28;4.32;;;2.10;;
53064;SDS011;38948;48.376;-4.312;2022-09-01T12:56:02;2.83;;;1.70;;
53064;SDS011;38948;48.376;-4.312;2022-09-01T12:58:28;3.72;;;1.58;;
53064;SDS011;38948;48.376;-4.312;2022-09-01T13:01:05;3.95;;;1.98;;
53064;SDS011;38948;48.376;-4.312;2022-09-01T13:03:42;2.22;;;1.73;;
53064;SDS011;38948;48.376;-4.312;2022-09-01T13:06:08;3.17;;;2.00;;
53064;SDS011;38948;48.376;-4.312;2022-09-01T13:08:35;2.75;;;1.88;;
53064;SDS011;38948;48.376;-4.312;2022-09-01T13:11:12;2.75;;;1.75;;
53064;SDS011;38948;48.376;-4.312;2022-09-01T13:13:39;2.03;;;1.63;;
53064;SDS011;38948;48.376;-4.312;2022-09-01T13:16:05;4.82;;;1.88;;
53064;SDS011;38948;48.376;-4.312;2022-09-01T13:18:36;4.60;;;2.00;;
53064;SDS011;38948;48.376;-4.312;2022-09-01T13:21:03;4.40;;;2.15;;
53064;SDS011;38948;48.376;-4.312;2022-09-01T13:23:29;4.03;;;2.05;;
53064;SDS011;38948;48.376;-4.312;2022-09-01T13:25:56;3.88;;;2.08;;
53064;SDS011;38948;48.376;-4.312;2022-09-01T13:28:26;4.88;;;2.03;;
53064;SDS011;38948;48.376;-4.312;2022-09-01T13:30:55;4.70;;;1.60;;
53064;SDS011;38948;48.376;-4.312;2022-09-01T13:33:23;3.20;;;1.90;;
53064;SDS011;38948;48.376;-4.312;2022-09-01T13:35:49;3.60;;;2.03;;
53064;SDS011;38948;48.376;-4.312;2022-09-01T13:38:15;4.93;;;2.20;;
53064;SDS011;38948;48.376;-4.312;2022-09-01T13:40:42;3.47;;;2.10;;
53064;SDS011;38948;48.376;-4.312;2022-09-01T13:43:10;3.95;;;1.90;;
53064;SDS011;38948;48.376;-4.312;2022-09-01T13:45:36;3.50;;;1.80;;
53064;SDS011;38948;48.376;-4.312;2022-09-01T13:48:04;3.88;;;2.30;;
53064;SDS011;38948;48.376;-4.312;2022-09-01T13:50:31;3.03;;;1.88;;
53064;SDS011;38948;48.376;-4.312;2022-09-01T13:52:57;2.97;;;1.60;;
53064;SDS011;38948;48.376;-4.312;2022-09-01T13:55:34;2.05;;;1.52;;
53064;SDS011;38948;48.376;-4.312;2022-09-01T13:58:00;2.90;;;1.80;;
53064;SDS011;38948;48.376;-4.312;2022-09-01T14:00:31;2.55;;;1.77;;
53064;SDS011;38948;48.376;-4.312;2022-09-01T14:02:59;6.28;;;2.10;;
53064;SDS011;38948;48.376;-4.312;2022-09-01T14:05:31;3.33;;;1.65;;
53064;SDS011;38948;48.376;-4.312;2022-09-01T14:07:58;9.15;;;2.13;;
53064;SDS011;38948;48.376;-4.312;2022-09-01T14:10:24;5.03;;;1.80;;
53064;SDS011;38948;48.376;-4.312;2022-09-01T14:12:51;3.55;;;2.05;;
53064;SDS011;38948;48.376;-4.312;2022-09-01T14:15:18;7.22;;;1.75;;
53064;SDS011;38948;48.376;-4.312;2022-09-01T14:17:46;3.13;;;1.50;;
53064;SDS011;38948;48.376;-4.312;2022-09-01T14:20:14;3.38;;;1.63;;
53064;SDS011;38948;48.376;-4.312;2022-09-01T14:22:42;6.40;;;1.95;;
53064;SDS011;38948;48.376;-4.312;2022-09-01T14:25:09;3.53;;;1.55;;
53064;SDS011;38948;48.376;-4.312;2022-09-01T14:27:36;5.28;;;1.92;;
53064;SDS011;38948;48.376;-4.312;2022-09-01T14:30:07;3.10;;;1.40;;
53064;SDS011;38948;48.376;-4.312;2022-09-01T14:32:33;4.47;;;1.70;;
53064;SDS011;38948;48.376;-4.312;2022-09-01T14:35:00;7.13;;;1.55;;
53064;SDS011;38948;48.376;-4.312;2022-09-01T14:37:26;2.67;;;1.30;;
53064;SDS011;38948;48.376;-4.312;2022-09-01T14:39:53;3.70;;;1.67;;
53064;SDS011;38948;48.376;-4.312;2022-09-01T14:42:20;4.93;;;1.98;;
53064;SDS011;38948;48.376;-4.312;2022-09-01T14:44:49;3.88;;;1.52;;
53064;SDS011;38948;48.376;-4.312;2022-09-01T14:47:15;3.95;;;1.90;;
53064;SDS011;38948;48.376;-4.312;2022-09-01T14:49:42;4.53;;;1.90;;
53064;SDS011;38948;48.376;-4.312;2022-09-01T14:52:09;4.28;;;1.77;;
53064;SDS011;38948;48.376;-4.312;2022-09-01T14:54:36;4.13;;;2.35;;
53064;SDS011;38948;48.376;-4.312;2022-09-01T14:57:03;2.72;;;1.67;;
53064;SDS011;38948;48.376;-4.312;2022-09-01T14:59:29;3.75;;;1.90;;
53064;SDS011;38948;48.376;-4.312;2022-09-01T15:01:55;4.35;;;2.42;;
53064;SDS011;38948;48.376;-4.312;2022-09-01T15:04:21;5.93;;;2.78;;
53064;SDS011;38948;48.376;-4.312;2022-09-01T15:06:47;5.13;;;2.30;;
53064;SDS011;38948;48.376;-4.312;2022-09-01T15:09:14;6.40;;;2.20;;
53064;SDS011;38948;48.376;-4.312;2022-09-01T15:11:40;7.15;;;2.20;;
53064;SDS011;38948;48.376;-4.312;2022-09-01T15:14:07;4.43;;;2.13;;
53064;SDS011;38948;48.376;-4.312;2022-09-01T15:16:34;4.63;;;2.17;;
53064;SDS011;38948;48.376;-4.312;2022-09-01T15:19:04;5.72;;;2.53;;
53064;SDS011;38948;48.376;-4.312;2022-09-01T15:21:32;2.70;;;1.80;;
53064;SDS011;38948;48.376;-4.312;2022-09-01T15:23:59;6.03;;;2.63;;
53064;SDS011;38948;48.376;-4.312;2022-09-01T15:26:26;3.85;;;2.10;;
53064;SDS011;38948;48.376;-4.312;2022-09-01T15:28:52;6.43;;;2.03;;
53064;SDS011;38948;48.376;-4.312;2022-09-01T15:31:19;3.30;;;2.22;;
53064;SDS011;38948;48.376;-4.312;2022-09-01T15:33:46;3.33;;;1.95;;
53064;SDS011;38948;48.376;-4.312;2022-09-01T15:36:14;6.97;;;2.15;;